Аэропорт: Петропавловск. Петропавловск

ICAO: UACP

METAR:
2019/01/21 15:00
UACP 211500Z 22004MPS CAVOK M16/M17 Q1020 R23/4/1045 NOSIG RMK QFE753/1004
METAR:
2014/11/02 09:00
TAF UACP 020753Z 0209/0218 21004MPS 9999 BKN030